sensor_id;sensor_type;location;lat;lon;timestamp;P1;durP1;ratioP1;P2;durP2;ratioP2
60478;SDS011;46321;48.398;11.754;2023-03-03T00:00:37;60.25;;;20.98;;
60478;SDS011;46321;48.398;11.754;2023-03-03T00:03:04;53.67;;;19.42;;
60478;SDS011;46321;48.398;11.754;2023-03-03T00:05:32;57.00;;;19.80;;
60478;SDS011;46321;48.398;11.754;2023-03-03T00:07:58;57.30;;;20.52;;
60478;SDS011;46321;48.398;11.754;2023-03-03T00:10:24;55.55;;;20.15;;
60478;SDS011;46321;48.398;11.754;2023-03-03T00:12:50;61.92;;;20.77;;
60478;SDS011;46321;48.398;11.754;2023-03-03T00:15:20;59.33;;;19.98;;
60478;SDS011;46321;48.398;11.754;2023-03-03T00:17:47;51.33;;;19.48;;
60478;SDS011;46321;48.398;11.754;2023-03-03T00:20:29;57.63;;;20.10;;
60478;SDS011;46321;48.398;11.754;2023-03-03T00:26:06;51.20;;;18.50;;
60478;SDS011;46321;48.398;11.754;2023-03-03T00:28:43;63.22;;;19.83;;
60478;SDS011;46321;48.398;11.754;2023-03-03T00:31:15;55.05;;;19.88;;
60478;SDS011;46321;48.398;11.754;2023-03-03T00:33:50;56.38;;;20.60;;
60478;SDS011;46321;48.398;11.754;2023-03-03T00:39:12;49.03;;;19.48;;
60478;SDS011;46321;48.398;11.754;2023-03-03T00:41:53;59.03;;;21.40;;
60478;SDS011;46321;48.398;11.754;2023-03-03T00:44:32;55.13;;;20.33;;
60478;SDS011;46321;48.398;11.754;2023-03-03T00:47:13;54.03;;;19.27;;
60478;SDS011;46321;48.398;11.754;2023-03-03T00:52:39;56.88;;;19.38;;
60478;SDS011;46321;48.398;11.754;2023-03-03T00:55:09;57.42;;;19.42;;
60478;SDS011;46321;48.398;11.754;2023-03-03T00:57:35;53.97;;;20.15;;
60478;SDS011;46321;48.398;11.754;2023-03-03T01:00:00;57.05;;;19.45;;
60478;SDS011;46321;48.398;11.754;2023-03-03T01:02:26;52.58;;;19.40;;
60478;SDS011;46321;48.398;11.754;2023-03-03T01:04:51;57.15;;;20.63;;
60478;SDS011;46321;48.398;11.754;2023-03-03T01:07:20;60.95;;;19.60;;
60478;SDS011;46321;48.398;11.754;2023-03-03T01:09:46;55.40;;;20.40;;
60478;SDS011;46321;48.398;11.754;2023-03-03T01:12:11;57.53;;;20.40;;
60478;SDS011;46321;48.398;11.754;2023-03-03T01:14:37;60.67;;;20.45;;
60478;SDS011;46321;48.398;11.754;2023-03-03T01:17:03;56.80;;;19.98;;
60478;SDS011;46321;48.398;11.754;2023-03-03T01:19:28;58.85;;;19.70;;
60478;SDS011;46321;48.398;11.754;2023-03-03T01:21:54;55.30;;;20.48;;
60478;SDS011;46321;48.398;11.754;2023-03-03T01:24:19;52.10;;;19.58;;
60478;SDS011;46321;48.398;11.754;2023-03-03T01:26:45;55.53;;;20.02;;
60478;SDS011;46321;48.398;11.754;2023-03-03T01:29:10;61.22;;;19.55;;
60478;SDS011;46321;48.398;11.754;2023-03-03T01:31:36;57.13;;;19.58;;
60478;SDS011;46321;48.398;11.754;2023-03-03T01:34:01;53.38;;;18.33;;
60478;SDS011;46321;48.398;11.754;2023-03-03T01:36:27;56.40;;;20.52;;
60478;SDS011;46321;48.398;11.754;2023-03-03T01:38:53;56.80;;;20.95;;
60478;SDS011;46321;48.398;11.754;2023-03-03T01:41:19;57.17;;;20.33;;
60478;SDS011;46321;48.398;11.754;2023-03-03T01:43:45;53.85;;;19.85;;
60478;SDS011;46321;48.398;11.754;2023-03-03T01:46:31;59.28;;;19.67;;
60478;SDS011;46321;48.398;11.754;2023-03-03T01:49:13;60.72;;;19.80;;
60478;SDS011;46321;48.398;11.754;2023-03-03T01:51:54;55.92;;;20.77;;
60478;SDS011;46321;48.398;11.754;2023-03-03T01:54:38;56.28;;;19.73;;
60478;SDS011;46321;48.398;11.754;2023-03-03T01:57:10;55.88;;;19.73;;
60478;SDS011;46321;48.398;11.754;2023-03-03T01:59:41;57.53;;;18.80;;
60478;SDS011;46321;48.398;11.754;2023-03-03T02:02:10;56.20;;;19.33;;
60478;SDS011;46321;48.398;11.754;2023-03-03T02:04:35;60.78;;;20.33;;
60478;SDS011;46321;48.398;11.754;2023-03-03T02:07:02;58.08;;;20.77;;
60478;SDS011;46321;48.398;11.754;2023-03-03T02:09:33;58.08;;;19.77;;
60478;SDS011;46321;48.398;11.754;2023-03-03T02:12:07;58.33;;;19.67;;
60478;SDS011;46321;48.398;11.754;2023-03-03T02:14:36;62.53;;;20.30;;
60478;SDS011;46321;48.398;11.754;2023-03-03T02:17:01;57.22;;;20.30;;
60478;SDS011;46321;48.398;11.754;2023-03-03T02:22:05;57.05;;;19.52;;
60478;SDS011;46321;48.398;11.754;2023-03-03T02:24:36;53.47;;;19.58;;
60478;SDS011;46321;48.398;11.754;2023-03-03T02:27:15;53.97;;;19.08;;
60478;SDS011;46321;48.398;11.754;2023-03-03T02:29:40;63.55;;;20.33;;
60478;SDS011;46321;48.398;11.754;2023-03-03T02:32:06;62.80;;;20.08;;
60478;SDS011;46321;48.398;11.754;2023-03-03T02:34:42;62.15;;;19.27;;
60478;SDS011;46321;48.398;11.754;2023-03-03T02:37:10;55.65;;;18.90;;
60478;SDS011;46321;48.398;11.754;2023-03-03T02:39:35;57.70;;;18.67;;
60478;SDS011;46321;48.398;11.754;2023-03-03T02:42:01;57.42;;;21.08;;
60478;SDS011;46321;48.398;11.754;2023-03-03T02:44:32;59.58;;;19.67;;
60478;SDS011;46321;48.398;11.754;2023-03-03T02:46:58;57.92;;;20.30;;
60478;SDS011;46321;48.398;11.754;2023-03-03T02:49:25;56.08;;;20.00;;
60478;SDS011;46321;48.398;11.754;2023-03-03T02:51:51;56.22;;;19.45;;
60478;SDS011;46321;48.398;11.754;2023-03-03T02:54:19;58.80;;;20.83;;
60478;SDS011;46321;48.398;11.754;2023-03-03T02:56:46;59.08;;;20.30;;
60478;SDS011;46321;48.398;11.754;2023-03-03T02:59:11;56.75;;;20.80;;
60478;SDS011;46321;48.398;11.754;2023-03-03T03:01:37;69.60;;;21.95;;
60478;SDS011;46321;48.398;11.754;2023-03-03T03:04:07;58.13;;;21.38;;
60478;SDS011;46321;48.398;11.754;2023-03-03T03:06:35;56.50;;;19.70;;
60478;SDS011;46321;48.398;11.754;2023-03-03T03:09:00;60.33;;;21.17;;
60478;SDS011;46321;48.398;11.754;2023-03-03T03:11:26;70.55;;;20.88;;
60478;SDS011;46321;48.398;11.754;2023-03-03T03:13:51;62.00;;;21.02;;
60478;SDS011;46321;48.398;11.754;2023-03-03T03:16:16;58.08;;;20.08;;
60478;SDS011;46321;48.398;11.754;2023-03-03T03:18:42;64.07;;;20.42;;
60478;SDS011;46321;48.398;11.754;2023-03-03T03:21:08;60.60;;;20.55;;
60478;SDS011;46321;48.398;11.754;2023-03-03T03:23:35;58.97;;;20.45;;
60478;SDS011;46321;48.398;11.754;2023-03-03T03:26:00;64.57;;;21.98;;
60478;SDS011;46321;48.398;11.754;2023-03-03T03:28:26;62.47;;;20.42;;
60478;SDS011;46321;48.398;11.754;2023-03-03T03:30:51;61.75;;;20.92;;
60478;SDS011;46321;48.398;11.754;2023-03-03T03:33:16;59.08;;;20.27;;
60478;SDS011;46321;48.398;11.754;2023-03-03T03:35:41;58.30;;;19.73;;
60478;SDS011;46321;48.398;11.754;2023-03-03T03:38:09;69.13;;;20.40;;
60478;SDS011;46321;48.398;11.754;2023-03-03T03:40:35;60.20;;;20.80;;
60478;SDS011;46321;48.398;11.754;2023-03-03T03:43:00;62.17;;;20.45;;
60478;SDS011;46321;48.398;11.754;2023-03-03T03:45:25;60.65;;;20.13;;
60478;SDS011;46321;48.398;11.754;2023-03-03T03:47:51;54.78;;;19.90;;
60478;SDS011;46321;48.398;11.754;2023-03-03T03:50:16;65.07;;;20.83;;
60478;SDS011;46321;48.398;11.754;2023-03-03T03:52:41;63.88;;;20.33;;
60478;SDS011;46321;48.398;11.754;2023-03-03T03:55:07;62.35;;;20.23;;
60478;SDS011;46321;48.398;11.754;2023-03-03T03:57:33;55.53;;;19.52;;
60478;SDS011;46321;48.398;11.754;2023-03-03T03:59:59;56.70;;;20.00;;
60478;SDS011;46321;48.398;11.754;2023-03-03T04:02:24;67.65;;;21.83;;
60478;SDS011;46321;48.398;11.754;2023-03-03T04:04:49;58.75;;;21.25;;
60478;SDS011;46321;48.398;11.754;2023-03-03T04:07:14;59.28;;;20.70;;
60478;SDS011;46321;48.398;11.754;2023-03-03T04:09:40;54.55;;;19.48;;
60478;SDS011;46321;48.398;11.754;2023-03-03T04:12:05;59.65;;;20.58;;
60478;SDS011;46321;48.398;11.754;2023-03-03T04:14:30;59.55;;;21.13;;
60478;SDS011;46321;48.398;11.754;2023-03-03T04:16:56;63.20;;;21.52;;
60478;SDS011;46321;48.398;11.754;2023-03-03T04:19:21;58.08;;;20.13;;
60478;SDS011;46321;48.398;11.754;2023-03-03T04:21:47;61.53;;;21.48;;
60478;SDS011;46321;48.398;11.754;2023-03-03T04:24:12;56.17;;;22.10;;
60478;SDS011;46321;48.398;11.754;2023-03-03T04:26:37;59.58;;;19.95;;
60478;SDS011;46321;48.398;11.754;2023-03-03T04:29:03;60.22;;;20.75;;
60478;SDS011;46321;48.398;11.754;2023-03-03T04:31:28;60.92;;;20.73;;
60478;SDS011;46321;48.398;11.754;2023-03-03T04:33:54;62.83;;;22.15;;
60478;SDS011;46321;48.398;11.754;2023-03-03T04:36:20;60.67;;;20.25;;
60478;SDS011;46321;48.398;11.754;2023-03-03T04:38:45;67.03;;;21.02;;
60478;SDS011;46321;48.398;11.754;2023-03-03T04:41:11;59.45;;;20.45;;
60478;SDS011;46321;48.398;11.754;2023-03-03T04:43:36;51.72;;;19.98;;
60478;SDS011;46321;48.398;11.754;2023-03-03T04:46:02;58.15;;;20.42;;
60478;SDS011;46321;48.398;11.754;2023-03-03T04:48:27;53.75;;;20.50;;
60478;SDS011;46321;48.398;11.754;2023-03-03T04:50:53;56.35;;;20.50;;
60478;SDS011;46321;48.398;11.754;2023-03-03T04:53:18;56.25;;;20.45;;
60478;SDS011;46321;48.398;11.754;2023-03-03T04:55:43;60.63;;;21.88;;
60478;SDS011;46321;48.398;11.754;2023-03-03T04:58:09;55.90;;;20.58;;
60478;SDS011;46321;48.398;11.754;2023-03-03T05:00:34;62.47;;;21.45;;
60478;SDS011;46321;48.398;11.754;2023-03-03T05:03:00;60.88;;;20.83;;
60478;SDS011;46321;48.398;11.754;2023-03-03T05:05:25;56.20;;;21.75;;
60478;SDS011;46321;48.398;11.754;2023-03-03T05:07:51;56.90;;;19.83;;
60478;SDS011;46321;48.398;11.754;2023-03-03T05:10:16;60.88;;;21.73;;
60478;SDS011;46321;48.398;11.754;2023-03-03T05:12:42;63.22;;;21.60;;
60478;SDS011;46321;48.398;11.754;2023-03-03T05:15:08;57.90;;;20.15;;
60478;SDS011;46321;48.398;11.754;2023-03-03T05:17:33;59.67;;;20.77;;
60478;SDS011;46321;48.398;11.754;2023-03-03T05:19:58;63.42;;;20.30;;
60478;SDS011;46321;48.398;11.754;2023-03-03T05:22:24;56.58;;;20.95;;
60478;SDS011;46321;48.398;11.754;2023-03-03T05:24:49;56.78;;;19.92;;
60478;SDS011;46321;48.398;11.754;2023-03-03T05:27:15;59.42;;;22.27;;
60478;SDS011;46321;48.398;11.754;2023-03-03T05:29:40;55.80;;;19.95;;
60478;SDS011;46321;48.398;11.754;2023-03-03T05:32:05;58.13;;;20.50;;
60478;SDS011;46321;48.398;11.754;2023-03-03T05:34:31;68.47;;;22.85;;
60478;SDS011;46321;48.398;11.754;2023-03-03T05:36:56;62.83;;;20.98;;
60478;SDS011;46321;48.398;11.754;2023-03-03T05:39:21;51.97;;;20.65;;
60478;SDS011;46321;48.398;11.754;2023-03-03T05:41:47;58.60;;;20.10;;
60478;SDS011;46321;48.398;11.754;2023-03-03T05:44:12;60.40;;;22.08;;
60478;SDS011;46321;48.398;11.754;2023-03-03T05:46:38;61.17;;;21.30;;
60478;SDS011;46321;48.398;11.754;2023-03-03T05:49:03;59.95;;;20.75;;
60478;SDS011;46321;48.398;11.754;2023-03-03T05:51:28;62.13;;;22.15;;
60478;SDS011;46321;48.398;11.754;2023-03-03T05:53:54;56.85;;;20.55;;
60478;SDS011;46321;48.398;11.754;2023-03-03T05:56:19;62.15;;;21.27;;
60478;SDS011;46321;48.398;11.754;2023-03-03T05:58:44;61.35;;;20.95;;
60478;SDS011;46321;48.398;11.754;2023-03-03T06:01:10;64.35;;;22.98;;
60478;SDS011;46321;48.398;11.754;2023-03-03T06:03:36;66.50;;;22.50;;
60478;SDS011;46321;48.398;11.754;2023-03-03T06:06:01;64.50;;;21.00;;
60478;SDS011;46321;48.398;11.754;2023-03-03T06:08:26;62.17;;;19.92;;
60478;SDS011;46321;48.398;11.754;2023-03-03T06:10:52;55.63;;;20.92;;
60478;SDS011;46321;48.398;11.754;2023-03-03T06:13:17;63.22;;;22.05;;
60478;SDS011;46321;48.398;11.754;2023-03-03T06:15:42;58.90;;;20.35;;
60478;SDS011;46321;48.398;11.754;2023-03-03T06:18:08;64.82;;;21.90;;
60478;SDS011;46321;48.398;11.754;2023-03-03T06:20:33;57.40;;;21.00;;
60478;SDS011;46321;48.398;11.754;2023-03-03T06:22:59;60.28;;;21.23;;
60478;SDS011;46321;48.398;11.754;2023-03-03T06:25:25;56.92;;;21.75;;
60478;SDS011;46321;48.398;11.754;2023-03-03T06:27:50;64.65;;;22.17;;
60478;SDS011;46321;48.398;11.754;2023-03-03T06:30:16;56.47;;;21.20;;
60478;SDS011;46321;48.398;11.754;2023-03-03T06:32:42;58.25;;;20.80;;
60478;SDS011;46321;48.398;11.754;2023-03-03T06:35:08;64.95;;;22.42;;
60478;SDS011;46321;48.398;11.754;2023-03-03T06:37:33;60.47;;;21.13;;
60478;SDS011;46321;48.398;11.754;2023-03-03T06:39:58;61.90;;;21.90;;
60478;SDS011;46321;48.398;11.754;2023-03-03T06:42:24;56.33;;;21.55;;
60478;SDS011;46321;48.398;11.754;2023-03-03T06:44:49;57.97;;;20.75;;
60478;SDS011;46321;48.398;11.754;2023-03-03T06:47:14;57.55;;;20.42;;
60478;SDS011;46321;48.398;11.754;2023-03-03T06:49:40;58.67;;;21.25;;
60478;SDS011;46321;48.398;11.754;2023-03-03T06:52:10;58.30;;;21.38;;
60478;SDS011;46321;48.398;11.754;2023-03-03T06:54:38;57.33;;;21.40;;
60478;SDS011;46321;48.398;11.754;2023-03-03T06:57:24;57.08;;;20.27;;
60478;SDS011;46321;48.398;11.754;2023-03-03T06:59:52;58.35;;;20.60;;
60478;SDS011;46321;48.398;11.754;2023-03-03T07:02:19;59.92;;;21.48;;
60478;SDS011;46321;48.398;11.754;2023-03-03T07:04:46;61.50;;;22.45;;
60478;SDS011;46321;48.398;11.754;2023-03-03T07:07:14;64.70;;;21.85;;
60478;SDS011;46321;48.398;11.754;2023-03-03T07:09:42;55.83;;;20.58;;
60478;SDS011;46321;48.398;11.754;2023-03-03T07:12:10;62.30;;;21.75;;
60478;SDS011;46321;48.398;11.754;2023-03-03T07:14:42;57.17;;;21.02;;
60478;SDS011;46321;48.398;11.754;2023-03-03T07:17:13;54.75;;;20.85;;
60478;SDS011;46321;48.398;11.754;2023-03-03T07:19:44;55.53;;;20.58;;
60478;SDS011;46321;48.398;11.754;2023-03-03T07:22:13;56.83;;;21.63;;
60478;SDS011;46321;48.398;11.754;2023-03-03T07:24:39;65.90;;;22.45;;
60478;SDS011;46321;48.398;11.754;2023-03-03T07:29:49;54.78;;;19.67;;
60478;SDS011;46321;48.398;11.754;2023-03-03T07:32:36;58.88;;;21.83;;
60478;SDS011;46321;48.398;11.754;2023-03-03T07:35:24;54.97;;;19.88;;
60478;SDS011;46321;48.398;11.754;2023-03-03T07:37:58;53.85;;;20.40;;
60478;SDS011;46321;48.398;11.754;2023-03-03T07:42:56;57.10;;;22.00;;
60478;SDS011;46321;48.398;11.754;2023-03-03T07:45:31;57.42;;;20.52;;
60478;SDS011;46321;48.398;11.754;2023-03-03T07:48:45;58.17;;;20.92;;
60478;SDS011;46321;48.398;11.754;2023-03-03T07:50:50;53.47;;;21.10;;
60478;SDS011;46321;48.398;11.754;2023-03-03T07:53:21;57.47;;;22.25;;
60478;SDS011;46321;48.398;11.754;2023-03-03T07:55:51;54.47;;;20.60;;
60478;SDS011;46321;48.398;11.754;2023-03-03T07:58:36;55.85;;;20.92;;
60478;SDS011;46321;48.398;11.754;2023-03-03T08:03:53;54.10;;;20.05;;
60478;SDS011;46321;48.398;11.754;2023-03-03T08:06:27;59.28;;;21.48;;
60478;SDS011;46321;48.398;11.754;2023-03-03T08:11:33;54.83;;;21.15;;
60478;SDS011;46321;48.398;11.754;2023-03-03T08:13:58;57.53;;;22.02;;
60478;SDS011;46321;48.398;11.754;2023-03-03T08:16:29;52.38;;;20.38;;
60478;SDS011;46321;48.398;11.754;2023-03-03T08:19:02;60.38;;;22.10;;
60478;SDS011;46321;48.398;11.754;2023-03-03T08:21:28;58.03;;;22.05;;
60478;SDS011;46321;48.398;11.754;2023-03-03T08:23:55;56.90;;;21.63;;
60478;SDS011;46321;48.398;11.754;2023-03-03T08:26:21;51.58;;;20.83;;
60478;SDS011;46321;48.398;11.754;2023-03-03T08:28:48;61.88;;;23.17;;
60478;SDS011;46321;48.398;11.754;2023-03-03T08:31:14;57.22;;;21.77;;
60478;SDS011;46321;48.398;11.754;2023-03-03T08:33:41;57.55;;;21.52;;
60478;SDS011;46321;48.398;11.754;2023-03-03T08:36:07;61.00;;;23.33;;
60478;SDS011;46321;48.398;11.754;2023-03-03T08:38:33;60.53;;;23.35;;
60478;SDS011;46321;48.398;11.754;2023-03-03T08:40:59;63.15;;;22.63;;
60478;SDS011;46321;48.398;11.754;2023-03-03T08:43:24;54.50;;;21.67;;
60478;SDS011;46321;48.398;11.754;2023-03-03T08:45:53;57.17;;;21.13;;
60478;SDS011;46321;48.398;11.754;2023-03-03T08:48:23;55.38;;;21.60;;
60478;SDS011;46321;48.398;11.754;2023-03-03T08:50:48;56.05;;;23.50;;
60478;SDS011;46321;48.398;11.754;2023-03-03T08:53:14;61.20;;;24.00;;
60478;SDS011;46321;48.398;11.754;2023-03-03T08:55:40;53.17;;;21.05;;
60478;SDS011;46321;48.398;11.754;2023-03-03T08:58:06;55.97;;;22.17;;
60478;SDS011;46321;48.398;11.754;2023-03-03T09:00:31;53.63;;;20.88;;
60478;SDS011;46321;48.398;11.754;2023-03-03T09:02:56;59.40;;;22.45;;
60478;SDS011;46321;48.398;11.754;2023-03-03T09:05:22;57.92;;;24.02;;
60478;SDS011;46321;48.398;11.754;2023-03-03T09:07:49;54.17;;;22.38;;
60478;SDS011;46321;48.398;11.754;2023-03-03T09:10:19;58.20;;;22.67;;
60478;SDS011;46321;48.398;11.754;2023-03-03T09:12:51;59.15;;;23.15;;
60478;SDS011;46321;48.398;11.754;2023-03-03T09:15:25;57.60;;;22.02;;
60478;SDS011;46321;48.398;11.754;2023-03-03T09:17:58;55.38;;;22.52;;
60478;SDS011;46321;48.398;11.754;2023-03-03T09:20:37;51.92;;;21.42;;
60478;SDS011;46321;48.398;11.754;2023-03-03T09:26:46;49.80;;;21.45;;
60478;SDS011;46321;48.398;11.754;2023-03-03T09:28:51;53.80;;;20.95;;
60478;SDS011;46321;48.398;11.754;2023-03-03T09:31:23;62.92;;;25.30;;
60478;SDS011;46321;48.398;11.754;2023-03-03T09:33:51;57.75;;;24.17;;
60478;SDS011;46321;48.398;11.754;2023-03-03T09:36:28;60.78;;;25.15;;
60478;SDS011;46321;48.398;11.754;2023-03-03T09:38:59;52.83;;;22.35;;
60478;SDS011;46321;48.398;11.754;2023-03-03T09:44:10;47.10;;;21.30;;
60478;SDS011;46321;48.398;11.754;2023-03-03T09:49:31;50.75;;;22.20;;
60478;SDS011;46321;48.398;11.754;2023-03-03T09:52:02;49.25;;;21.25;;
60478;SDS011;46321;48.398;11.754;2023-03-03T09:55:02;49.70;;;22.67;;
60478;SDS011;46321;48.398;11.754;2023-03-03T10:01:25;52.83;;;21.85;;
60478;SDS011;46321;48.398;11.754;2023-03-03T10:11:57;47.40;;;22.10;;
60478;SDS011;46321;48.398;11.754;2023-03-03T10:14:48;49.13;;;21.77;;
60478;SDS011;46321;48.398;11.754;2023-03-03T10:20:27;51.28;;;22.73;;
60478;SDS011;46321;48.398;11.754;2023-03-03T10:28:22;43.83;;;23.17;;
60478;SDS011;46321;48.398;11.754;2023-03-03T10:34:14;50.85;;;24.58;;
60478;SDS011;46321;48.398;11.754;2023-03-03T10:36:59;46.03;;;23.40;;
60478;SDS011;46321;48.398;11.754;2023-03-03T10:42:35;46.13;;;22.70;;
60478;SDS011;46321;48.398;11.754;2023-03-03T10:45:17;49.92;;;22.17;;
60478;SDS011;46321;48.398;11.754;2023-03-03T10:47:57;48.72;;;23.75;;
60478;SDS011;46321;48.398;11.754;2023-03-03T10:58:25;52.35;;;23.42;;
60478;SDS011;46321;48.398;11.754;2023-03-03T11:01:11;49.65;;;22.23;;
60478;SDS011;46321;48.398;11.754;2023-03-03T11:09:27;52.97;;;23.25;;
60478;SDS011;46321;48.398;11.754;2023-03-03T11:19:53;44.90;;;22.20;;
60478;SDS011;46321;48.398;11.754;2023-03-03T11:25:00;41.40;;;21.52;;
60478;SDS011;46321;48.398;11.754;2023-03-03T11:27:37;41.78;;;21.75;;
60478;SDS011;46321;48.398;11.754;2023-03-03T11:33:09;45.15;;;22.63;;
60478;SDS011;46321;48.398;11.754;2023-03-03T11:36:26;46.28;;;22.38;;
60478;SDS011;46321;48.398;11.754;2023-03-03T11:38:50;44.28;;;22.95;;
60478;SDS011;46321;48.398;11.754;2023-03-03T11:41:18;41.97;;;21.75;;
60478;SDS011;46321;48.398;11.754;2023-03-03T11:43:54;43.65;;;22.25;;
60478;SDS011;46321;48.398;11.754;2023-03-03T11:46:25;45.80;;;23.25;;
60478;SDS011;46321;48.398;11.754;2023-03-03T12:16:15;45.22;;;21.48;;
60478;SDS011;46321;48.398;11.754;2023-03-03T12:36:14;43.10;;;21.38;;
60478;SDS011;46321;48.398;11.754;2023-03-03T12:42:37;43.45;;;19.88;;
60478;SDS011;46321;48.398;11.754;2023-03-03T12:58:35;42.90;;;20.52;;
60478;SDS011;46321;48.398;11.754;2023-03-03T13:10:18;43.65;;;20.92;;
60478;SDS011;46321;48.398;11.754;2023-03-03T13:13:05;46.38;;;21.08;;
60478;SDS011;46321;48.398;11.754;2023-03-03T13:16:03;43.13;;;21.30;;
60478;SDS011;46321;48.398;11.754;2023-03-03T13:26:40;45.08;;;21.60;;
60478;SDS011;46321;48.398;11.754;2023-03-03T13:29:32;44.65;;;21.42;;
60478;SDS011;46321;48.398;11.754;2023-03-03T13:32:08;41.00;;;20.48;;
60478;SDS011;46321;48.398;11.754;2023-03-03T13:37:53;46.60;;;21.70;;
60478;SDS011;46321;48.398;11.754;2023-03-03T13:43:07;47.15;;;21.45;;
60478;SDS011;46321;48.398;11.754;2023-03-03T13:48:25;44.05;;;21.77;;
60478;SDS011;46321;48.398;11.754;2023-03-03T13:53:53;40.10;;;20.52;;
60478;SDS011;46321;48.398;11.754;2023-03-03T13:56:32;41.22;;;19.92;;
60478;SDS011;46321;48.398;11.754;2023-03-03T14:05:02;43.13;;;20.10;;
60478;SDS011;46321;48.398;11.754;2023-03-03T14:08:02;42.58;;;20.02;;
60478;SDS011;46321;48.398;11.754;2023-03-03T14:10:32;38.95;;;19.30;;
60478;SDS011;46321;48.398;11.754;2023-03-03T14:13:10;41.45;;;20.17;;
60478;SDS011;46321;48.398;11.754;2023-03-03T14:16:32;42.10;;;21.38;;
60478;SDS011;46321;48.398;11.754;2023-03-03T14:24:17;43.15;;;20.05;;
60478;SDS011;46321;48.398;11.754;2023-03-03T14:26:53;45.90;;;20.50;;
60478;SDS011;46321;48.398;11.754;2023-03-03T14:31:52;40.92;;;20.90;;
60478;SDS011;46321;48.398;11.754;2023-03-03T14:34:43;44.60;;;22.30;;
60478;SDS011;46321;48.398;11.754;2023-03-03T14:37:54;45.10;;;20.27;;
60478;SDS011;46321;48.398;11.754;2023-03-03T14:45:49;45.60;;;21.10;;
60478;SDS011;46321;48.398;11.754;2023-03-03T14:47:55;44.58;;;20.65;;
60478;SDS011;46321;48.398;11.754;2023-03-03T14:50:37;46.58;;;21.27;;
60478;SDS011;46321;48.398;11.754;2023-03-03T14:53:40;48.30;;;21.80;;
60478;SDS011;46321;48.398;11.754;2023-03-03T14:56:21;45.63;;;20.40;;
60478;SDS011;46321;48.398;11.754;2023-03-03T14:59:10;42.13;;;19.08;;
60478;SDS011;46321;48.398;11.754;2023-03-03T15:01:42;44.67;;;20.33;;
60478;SDS011;46321;48.398;11.754;2023-03-03T15:06:40;45.40;;;20.70;;
60478;SDS011;46321;48.398;11.754;2023-03-03T15:09:24;47.10;;;21.58;;
60478;SDS011;46321;48.398;11.754;2023-03-03T15:12:23;49.40;;;21.58;;
60478;SDS011;46321;48.398;11.754;2023-03-03T15:17:32;45.53;;;21.20;;
60478;SDS011;46321;48.398;11.754;2023-03-03T15:23:52;40.80;;;19.48;;
60478;SDS011;46321;48.398;11.754;2023-03-03T15:31:35;48.10;;;21.33;;
60478;SDS011;46321;48.398;11.754;2023-03-03T15:34:13;44.05;;;20.38;;
60478;SDS011;46321;48.398;11.754;2023-03-03T15:42:10;45.80;;;20.55;;
60478;SDS011;46321;48.398;11.754;2023-03-03T15:55:45;47.10;;;20.17;;
60478;SDS011;46321;48.398;11.754;2023-03-03T15:58:32;43.80;;;19.88;;
60478;SDS011;46321;48.398;11.754;2023-03-03T16:01:29;45.83;;;20.48;;
60478;SDS011;46321;48.398;11.754;2023-03-03T16:03:58;44.22;;;19.80;;
60478;SDS011;46321;48.398;11.754;2023-03-03T16:06:33;41.08;;;19.38;;
60478;SDS011;46321;48.398;11.754;2023-03-03T16:11:41;47.58;;;20.75;;
60478;SDS011;46321;48.398;11.754;2023-03-03T16:17:08;47.65;;;20.90;;
60478;SDS011;46321;48.398;11.754;2023-03-03T16:31:12;44.72;;;20.08;;
60478;SDS011;46321;48.398;11.754;2023-03-03T16:36:26;46.65;;;21.02;;
60478;SDS011;46321;48.398;11.754;2023-03-03T16:39:11;42.78;;;20.45;;
60478;SDS011;46321;48.398;11.754;2023-03-03T16:44:48;48.97;;;21.90;;
60478;SDS011;46321;48.398;11.754;2023-03-03T16:52:41;54.67;;;21.35;;
60478;SDS011;46321;48.398;11.754;2023-03-03T16:55:16;41.75;;;19.80;;
60478;SDS011;46321;48.398;11.754;2023-03-03T16:57:55;43.08;;;20.52;;
60478;SDS011;46321;48.398;11.754;2023-03-03T17:00:23;46.40;;;20.95;;
60478;SDS011;46321;48.398;11.754;2023-03-03T17:03:02;47.50;;;21.52;;
60478;SDS011;46321;48.398;11.754;2023-03-03T17:13:31;47.55;;;21.38;;
60478;SDS011;46321;48.398;11.754;2023-03-03T17:16:07;52.97;;;23.13;;
60478;SDS011;46321;48.398;11.754;2023-03-03T17:43:13;50.38;;;23.27;;
60478;SDS011;46321;48.398;11.754;2023-03-03T17:57:03;46.47;;;22.40;;
60478;SDS011;46321;48.398;11.754;2023-03-03T17:59:48;54.50;;;24.08;;
60478;SDS011;46321;48.398;11.754;2023-03-03T18:10:42;55.65;;;24.98;;
60478;SDS011;46321;48.398;11.754;2023-03-03T18:23:50;57.63;;;26.38;;
60478;SDS011;46321;48.398;11.754;2023-03-03T18:26:32;58.05;;;25.85;;
60478;SDS011;46321;48.398;11.754;2023-03-03T18:36:55;57.83;;;26.75;;
60478;SDS011;46321;48.398;11.754;2023-03-03T18:39:41;61.50;;;26.40;;
60478;SDS011;46321;48.398;11.754;2023-03-03T18:44:39;63.67;;;27.52;;
60478;SDS011;46321;48.398;11.754;2023-03-03T18:47:07;61.30;;;26.83;;
60478;SDS011;46321;48.398;11.754;2023-03-03T18:52:39;65.50;;;27.73;;
60478;SDS011;46321;48.398;11.754;2023-03-03T18:55:43;71.53;;;28.65;;
60478;SDS011;46321;48.398;11.754;2023-03-03T19:00:43;69.20;;;30.93;;
60478;SDS011;46321;48.398;11.754;2023-03-03T19:03:27;61.97;;;27.48;;
60478;SDS011;46321;48.398;11.754;2023-03-03T19:05:55;59.65;;;27.00;;
60478;SDS011;46321;48.398;11.754;2023-03-03T19:16:01;60.08;;;26.02;;
60478;SDS011;46321;48.398;11.754;2023-03-03T19:18:27;58.05;;;26.30;;
60478;SDS011;46321;48.398;11.754;2023-03-03T19:21:18;55.05;;;25.52;;
60478;SDS011;46321;48.398;11.754;2023-03-03T19:23:47;60.28;;;26.00;;
60478;SDS011;46321;48.398;11.754;2023-03-03T19:28:56;53.50;;;24.35;;
60478;SDS011;46321;48.398;11.754;2023-03-03T19:31:32;54.83;;;24.75;;
60478;SDS011;46321;48.398;11.754;2023-03-03T19:39:42;56.22;;;24.42;;
60478;SDS011;46321;48.398;11.754;2023-03-03T20:00:59;56.75;;;24.60;;
60478;SDS011;46321;48.398;11.754;2023-03-03T20:03:48;68.00;;;28.42;;
60478;SDS011;46321;48.398;11.754;2023-03-03T20:09:21;59.75;;;25.00;;
60478;SDS011;46321;48.398;11.754;2023-03-03T20:12:07;51.47;;;23.20;;
60478;SDS011;46321;48.398;11.754;2023-03-03T20:14:50;63.72;;;25.88;;
60478;SDS011;46321;48.398;11.754;2023-03-03T20:22:59;59.25;;;25.13;;
60478;SDS011;46321;48.398;11.754;2023-03-03T20:28:51;63.35;;;26.27;;
60478;SDS011;46321;48.398;11.754;2023-03-03T20:34:15;56.10;;;25.27;;
60478;SDS011;46321;48.398;11.754;2023-03-03T20:37:06;60.08;;;24.95;;
60478;SDS011;46321;48.398;11.754;2023-03-03T20:39:49;54.65;;;24.27;;
60478;SDS011;46321;48.398;11.754;2023-03-03T20:44:59;59.40;;;25.70;;
60478;SDS011;46321;48.398;11.754;2023-03-03T20:53:51;58.70;;;25.20;;
60478;SDS011;46321;48.398;11.754;2023-03-03T20:56:45;60.22;;;25.92;;
60478;SDS011;46321;48.398;11.754;2023-03-03T21:04:33;57.55;;;25.85;;
60478;SDS011;46321;48.398;11.754;2023-03-03T21:07:00;57.00;;;25.00;;